createdAt,value
2017-12-14T00:00:27.744Z,54.37
2017-12-14T00:01:27.738Z,54.08
2017-12-14T00:02:27.733Z,54.08
2017-12-14T00:03:27.729Z,54.46
2017-12-14T00:04:27.722Z,54.66
2017-12-14T00:05:27.719Z,54.66
2017-12-14T00:06:27.712Z,54.56
2017-12-14T00:07:27.710Z,54.85
2017-12-14T00:08:27.703Z,55.32
2017-12-14T00:09:27.697Z,55.79
2017-12-14T00:10:27.693Z,55.51
2017-12-14T00:11:27.688Z,55.70
2017-12-14T00:12:27.682Z,56.08
2017-12-14T00:13:27.676Z,55.79
2017-12-14T00:14:27.672Z,55.79
2017-12-14T00:15:27.667Z,55.89
2017-12-14T00:16:27.661Z,56.36
2017-12-14T00:17:27.656Z,56.27
2017-12-14T00:18:27.652Z,56.46
2017-12-14T00:19:27.646Z,56.84
2017-12-14T00:20:27.640Z,57.12
2017-12-14T00:21:27.636Z,57.12
2017-12-14T00:22:27.631Z,57.21
2017-12-14T00:23:27.626Z,56.84
2017-12-14T00:24:27.622Z,57.31
2017-12-14T00:25:27.616Z,57.50
2017-12-14T00:26:27.609Z,57.03
2017-12-14T00:27:27.607Z,56.74
2017-12-14T00:28:27.601Z,57.03
2017-12-14T00:29:27.595Z,57.03
2017-12-14T00:30:27.591Z,57.03
2017-12-14T00:31:27.636Z,57.50
2017-12-14T00:32:27.580Z,57.21
2017-12-14T00:33:27.574Z,57.31
2017-12-14T00:34:27.570Z,57.40
2017-12-14T00:35:27.565Z,57.59
2017-12-14T00:36:27.561Z,58.26
2017-12-14T00:37:27.554Z,58.17
2017-12-14T00:38:27.551Z,58.92
2017-12-14T00:39:27.552Z,59.30
2017-12-14T00:40:27.540Z,58.73
2017-12-14T00:41:27.535Z,59.40
2017-12-14T00:42:27.531Z,59.78
2017-12-14T00:43:27.525Z,60.25
2017-12-14T00:44:27.520Z,59.78
2017-12-14T00:45:27.516Z,60.35
2017-12-14T00:46:27.514Z,60.73
2017-12-14T00:47:27.505Z,61.68
2017-12-14T00:48:27.500Z,61.96
2017-12-14T00:49:27.495Z,61.96
2017-12-14T00:50:27.490Z,62.72
2017-12-14T00:51:27.486Z,64.05
2017-12-14T00:52:27.486Z,65.37
2017-12-14T00:53:27.476Z,65.09
2017-12-14T00:54:27.470Z,64.33
2017-12-14T00:55:27.467Z,66.61
2017-12-14T00:56:27.462Z,66.71
2017-12-14T00:57:27.456Z,65.85
2017-12-14T00:58:27.451Z,66.71
2017-12-14T00:59:27.445Z,67.37
2017-12-14T01:00:27.442Z,67.27
2017-12-14T01:01:27.436Z,66.80
2017-12-14T01:02:27.431Z,67.75
2017-12-14T01:03:27.426Z,69.27
2017-12-14T01:04:27.422Z,69.17
2017-12-14T01:05:27.417Z,68.51
2017-12-14T01:06:27.412Z,68.23
2017-12-14T01:07:27.409Z,68.89
2017-12-14T01:08:27.410Z,69.17
2017-12-14T01:09:27.398Z,68.23
2017-12-14T01:10:27.393Z,67.75
2017-12-14T01:11:27.389Z,68.32
2017-12-14T01:12:27.386Z,68.98
2017-12-14T01:13:27.379Z,68.79
2017-12-14T01:14:27.400Z,69.17
2017-12-14T01:15:27.376Z,68.98
2017-12-14T01:16:27.365Z,69.08
2017-12-14T01:17:27.360Z,69.84
2017-12-14T01:18:27.356Z,69.93
2017-12-14T01:19:27.351Z,69.93
2017-12-14T01:20:27.347Z,69.74
2017-12-14T01:21:27.341Z,69.74
2017-12-14T01:22:27.336Z,70.03
2017-12-14T01:23:27.333Z,70.59
2017-12-14T01:24:27.328Z,71.64
2017-12-14T01:25:27.322Z,72.02
2017-12-14T01:26:27.317Z,72.49
2017-12-14T01:27:27.313Z,72.97
2017-12-14T01:28:27.309Z,72.88
2017-12-14T01:29:27.303Z,73.44
2017-12-14T01:30:27.299Z,72.78
2017-12-14T01:31:27.296Z,72.59
2017-12-14T01:32:27.291Z,72.78
2017-12-14T01:33:27.286Z,72.78
2017-12-14T01:34:27.282Z,72.63
2017-12-14T01:35:27.277Z,72.91
2017-12-14T01:36:27.272Z,73.00
2017-12-14T01:37:27.266Z,73.19
2017-12-14T01:38:27.264Z,72.81
2017-12-14T01:39:27.258Z,73.00
2017-12-14T01:40:27.255Z,72.91
2017-12-14T01:41:27.251Z,73.29
2017-12-14T01:42:27.246Z,73.38
2017-12-14T01:43:27.240Z,73.67
2017-12-14T01:44:27.237Z,73.67
2017-12-14T01:45:27.232Z,73.57
2017-12-14T01:46:27.227Z,73.86
2017-12-14T01:47:27.223Z,74.05
2017-12-14T01:48:27.219Z,73.00
2017-12-14T01:49:27.213Z,72.53
2017-12-14T01:50:27.208Z,72.53
2017-12-14T01:51:27.204Z,69.68
2017-12-14T01:52:27.201Z,69.11
2017-12-14T01:53:27.195Z,70.06
2017-12-14T01:54:27.191Z,70.25
2017-12-14T01:55:27.187Z,69.68
2017-12-14T01:56:27.184Z,68.92
2017-12-14T01:57:27.177Z,67.69
2017-12-14T01:58:27.174Z,65.60
2017-12-14T01:59:27.171Z,64.75
2017-12-14T02:00:27.165Z,63.89
2017-12-14T02:01:27.160Z,63.60
2017-12-14T02:02:27.156Z,63.48
2017-12-14T02:03:27.152Z,63.67
2017-12-14T02:04:27.147Z,63.57
2017-12-14T02:05:27.143Z,62.82
2017-12-14T02:06:27.137Z,61.96
2017-12-14T02:07:27.134Z,61.68
2017-12-14T02:08:27.129Z,61.39
2017-12-14T02:09:27.133Z,61.20
2017-12-14T02:10:27.119Z,60.44
2017-12-14T02:11:27.116Z,60.53
2017-12-14T02:12:27.112Z,59.62
2017-12-14T02:13:27.108Z,61.61
2017-12-14T02:14:27.103Z,65.75
2017-12-14T02:15:27.097Z,68.13
2017-12-14T02:16:27.097Z,69.84
2017-12-14T02:17:27.092Z,70.78
2017-12-14T02:18:27.084Z,72.17
2017-12-14T02:19:27.079Z,73.50
2017-12-14T02:20:27.075Z,74.45
2017-12-14T02:21:27.070Z,75.02
2017-12-14T02:22:27.065Z,75.31
2017-12-14T02:23:27.063Z,76.06
2017-12-14T02:24:27.058Z,76.82
2017-12-14T02:25:27.050Z,76.82
2017-12-14T02:26:27.054Z,76.82
2017-12-14T02:27:27.042Z,77.11
2017-12-14T02:28:27.039Z,76.34
2017-12-14T02:29:27.033Z,75.96
2017-12-14T02:30:27.029Z,75.40
2017-12-14T02:31:27.024Z,75.40
2017-12-14T02:32:27.019Z,74.83
2017-12-14T02:33:27.015Z,74.45
2017-12-14T02:34:27.010Z,74.07
2017-12-14T02:35:27.006Z,73.69
2017-12-14T02:36:27.002Z,73.88
2017-12-14T02:37:26.996Z,73.88
2017-12-14T02:38:26.990Z,73.88
2017-12-14T02:39:26.986Z,73.69
2017-12-14T02:40:26.981Z,73.69
2017-12-14T02:41:26.975Z,73.97
2017-12-14T02:42:26.971Z,73.12
2017-12-14T02:43:26.967Z,74.07
2017-12-14T02:44:26.962Z,73.31
2017-12-14T02:45:26.958Z,73.31
2017-12-14T02:46:26.953Z,73.31
2017-12-14T02:47:26.949Z,73.31
2017-12-14T02:48:26.945Z,73.12
2017-12-14T02:49:26.938Z,72.93
2017-12-14T02:50:26.938Z,73.31
2017-12-14T02:51:26.929Z,73.88
2017-12-14T02:52:26.926Z,73.60
2017-12-14T02:53:26.920Z,73.50
2017-12-14T02:54:26.917Z,73.35
2017-12-14T02:55:26.913Z,73.72
2017-12-14T02:56:26.907Z,74.01
2017-12-14T02:57:26.902Z,73.54
2017-12-14T02:58:26.898Z,73.54
2017-12-14T02:59:26.893Z,73.44
2017-12-14T03:00:26.889Z,73.35
2017-12-14T03:01:26.884Z,73.07
2017-12-14T03:02:26.881Z,72.40
2017-12-14T03:03:26.875Z,71.92
2017-12-14T03:04:26.872Z,71.73
2017-12-14T03:05:26.867Z,71.45
2017-12-14T03:06:26.864Z,71.36
2017-12-14T03:07:26.858Z,70.31
2017-12-14T03:08:26.853Z,69.36
2017-12-14T03:09:26.848Z,69.65
2017-12-14T03:10:26.844Z,68.89
2017-12-14T03:11:26.843Z,68.13
2017-12-14T03:12:26.836Z,68.13
2017-12-14T03:13:26.830Z,67.94
2017-12-14T03:14:26.826Z,68.51
2017-12-14T03:15:26.821Z,68.79
2017-12-14T03:16:26.818Z,69.36
2017-12-14T03:17:26.813Z,70.21
2017-12-14T03:18:26.808Z,70.78
2017-12-14T03:19:26.804Z,72.30
2017-12-14T03:20:26.800Z,72.97
2017-12-14T03:21:26.796Z,73.63
2017-12-14T03:22:26.791Z,74.49
2017-12-14T03:23:26.788Z,74.49
2017-12-14T03:24:26.784Z,74.68
2017-12-14T03:25:26.779Z,74.49
2017-12-14T03:26:26.775Z,74.49
2017-12-14T03:27:26.770Z,74.49
2017-12-14T03:28:26.764Z,74.58
2017-12-14T03:29:26.759Z,75.05
2017-12-14T03:30:26.756Z,74.87
2017-12-14T03:31:26.754Z,74.39
2017-12-14T03:32:26.748Z,74.77
2017-12-14T03:33:26.741Z,74.77
2017-12-14T03:34:26.737Z,74.49
2017-12-14T03:35:26.734Z,75.24
2017-12-14T03:36:26.731Z,75.15
2017-12-14T03:37:26.724Z,74.87
2017-12-14T03:38:26.720Z,75.24
2017-12-14T03:39:26.717Z,75.43
2017-12-14T03:40:26.712Z,73.92
2017-12-14T03:41:26.759Z,72.97
2017-12-14T03:42:26.702Z,72.02
2017-12-14T03:43:26.698Z,71.07
2017-12-14T03:44:26.695Z,70.78
2017-12-14T03:45:26.690Z,71.26
2017-12-14T03:46:26.685Z,70.98
2017-12-14T03:47:26.681Z,72.02
2017-12-14T03:48:26.680Z,72.40
2017-12-14T03:49:26.671Z,71.64
2017-12-14T03:50:26.669Z,72.02
2017-12-14T03:51:26.664Z,73.35
2017-12-14T03:52:26.660Z,73.44
2017-12-14T03:53:26.655Z,74.01
2017-12-14T03:54:26.650Z,75.24
2017-12-14T03:55:26.646Z,76.29
2017-12-14T03:56:26.641Z,78.34
2017-12-14T03:57:26.637Z,79.61
2017-12-14T03:58:26.631Z,81.85
2017-12-14T03:59:26.633Z,82.51
2017-12-14T04:00:26.623Z,83.40
2017-12-14T04:01:26.618Z,83.69
2017-12-14T04:02:26.612Z,83.59
2017-12-14T04:03:26.607Z,84.17
2017-12-14T04:04:26.604Z,83.50
2017-12-14T04:05:26.597Z,82.84
2017-12-14T04:06:26.593Z,82.93
2017-12-14T04:07:26.589Z,83.03
2017-12-14T04:08:26.583Z,82.74
2017-12-14T04:09:26.579Z,83.12
2017-12-14T04:10:26.574Z,81.88
2017-12-14T04:11:26.567Z,79.71
2017-12-14T04:12:26.563Z,76.20
2017-12-14T04:13:26.558Z,75.05
2017-12-14T04:14:26.552Z,75.15
2017-12-14T04:15:26.551Z,75.15
2017-12-14T04:16:26.544Z,74.87
2017-12-14T04:17:26.540Z,74.96
2017-12-14T04:18:26.534Z,74.68
2017-12-14T04:19:26.531Z,74.20
2017-12-14T04:20:26.530Z,73.82
2017-12-14T04:21:26.520Z,73.79
2017-12-14T04:22:26.515Z,73.79
2017-12-14T04:23:26.511Z,74.16
2017-12-14T04:24:26.506Z,73.60
2017-12-14T04:25:26.500Z,73.75
2017-12-14T04:26:26.495Z,73.56
2017-12-14T04:27:26.491Z,73.50
2017-12-14T04:28:26.486Z,73.31
2017-12-14T04:29:26.481Z,73.50
2017-12-14T04:30:26.475Z,73.12
2017-12-14T04:31:26.474Z,72.93
2017-12-14T04:32:26.468Z,73.46
2017-12-14T04:33:26.461Z,73.69
2017-12-14T04:34:26.457Z,74.45
2017-12-14T04:35:26.451Z,75.40
2017-12-14T04:36:26.447Z,75.68
2017-12-14T04:37:26.440Z,75.78
2017-12-14T04:38:26.437Z,75.31
2017-12-14T04:39:26.431Z,76.25
2017-12-14T04:40:26.427Z,77.06
2017-12-14T04:41:26.421Z,77.06
2017-12-14T04:42:26.417Z,76.87
2017-12-14T04:43:26.412Z,77.54
2017-12-14T04:44:26.408Z,77.83
2017-12-14T04:45:26.404Z,78.02
2017-12-14T04:46:26.397Z,78.20
2017-12-14T04:47:26.392Z,78.77
2017-12-14T04:48:26.388Z,78.67
2017-12-14T04:49:26.381Z,77.73
2017-12-14T04:50:26.375Z,77.16
2017-12-14T04:51:26.379Z,77.25
2017-12-14T04:52:26.365Z,77.45
2017-12-14T04:53:26.365Z,78.20
2017-12-14T04:54:26.355Z,78.02
2017-12-14T04:55:26.352Z,77.64
2017-12-14T04:56:26.346Z,77.45
2017-12-14T04:57:26.341Z,77.11
2017-12-14T04:58:26.333Z,73.69
2017-12-14T04:59:26.331Z,72.21
2017-12-14T05:00:26.325Z,71.92
2017-12-14T05:01:26.320Z,71.92
2017-12-14T05:02:26.315Z,71.55
2017-12-14T05:03:26.311Z,71.73
2017-12-14T05:04:26.305Z,72.11
2017-12-14T05:05:26.300Z,71.64
2017-12-14T05:06:26.294Z,70.98
2017-12-14T05:07:26.289Z,71.20
2017-12-14T05:08:26.285Z,71.11
2017-12-14T05:09:26.278Z,70.82
2017-12-14T05:10:26.274Z,70.44
2017-12-14T05:11:26.269Z,70.35
2017-12-14T05:12:26.265Z,70.21
2017-12-14T05:13:26.259Z,71.26
2017-12-14T05:14:26.252Z,71.26
2017-12-14T05:15:26.250Z,72.11
2017-12-14T05:16:26.244Z,72.68
2017-12-14T05:17:26.239Z,72.49
2017-12-14T05:18:26.234Z,72.59
2017-12-14T05:19:26.230Z,72.49
2017-12-14T05:20:26.224Z,72.49
2017-12-14T05:21:26.219Z,72.78
2017-12-14T05:22:26.216Z,72.78
2017-12-14T05:23:26.208Z,73.35
2017-12-14T05:24:26.204Z,72.88
2017-12-14T05:25:26.197Z,72.88
2017-12-14T05:26:26.194Z,73.07
2017-12-14T05:27:26.189Z,72.40
2017-12-14T05:28:26.184Z,72.44
2017-12-14T05:29:26.179Z,71.77
2017-12-14T05:30:26.178Z,72.06
2017-12-14T05:31:26.170Z,71.86
2017-12-14T05:32:26.165Z,71.77
2017-12-14T05:33:26.159Z,71.67
2017-12-14T05:34:26.154Z,70.73
2017-12-14T05:35:26.148Z,70.54
2017-12-14T05:36:26.144Z,70.25
2017-12-14T05:37:26.138Z,70.63
2017-12-14T05:38:26.134Z,70.73
2017-12-14T05:39:26.128Z,70.73
2017-12-14T05:40:26.125Z,71.39
2017-12-14T05:41:26.118Z,71.01
2017-12-14T05:42:26.114Z,71.67
2017-12-14T05:43:26.108Z,72.34
2017-12-14T05:44:26.106Z,72.63
2017-12-14T05:45:26.098Z,73.00
2017-12-14T05:46:26.095Z,73.19
2017-12-14T05:47:26.089Z,73.76
2017-12-14T05:48:26.085Z,73.76
2017-12-14T05:49:26.080Z,74.05
2017-12-14T05:50:26.075Z,74.52
2017-12-14T05:51:26.070Z,75.76
2017-12-14T05:52:26.065Z,78.23
2017-12-14T05:53:26.058Z,78.99
2017-12-14T05:54:26.054Z,80.69
2017-12-14T05:55:26.049Z,81.07
2017-12-14T05:56:26.044Z,82.40
2017-12-14T05:57:26.040Z,81.93
2017-12-14T05:58:26.034Z,82.12
2017-12-14T05:59:26.029Z,82.12
2017-12-14T06:00:26.025Z,81.45
2017-12-14T06:01:26.021Z,81.45
2017-12-14T06:02:26.014Z,80.41
2017-12-14T06:03:26.010Z,79.36
2017-12-14T06:04:26.004Z,78.61
2017-12-14T06:05:25.999Z,75.47
2017-12-14T06:06:25.993Z,73.38
2017-12-14T06:07:25.990Z,72.66
2017-12-14T06:08:25.984Z,71.81
2017-12-14T06:09:25.978Z,70.10
2017-12-14T06:10:25.975Z,67.44
2017-12-14T06:11:25.969Z,66.61
2017-12-14T06:12:25.966Z,65.67
2017-12-14T06:13:25.960Z,65.76
2017-12-14T06:14:25.955Z,65.19
2017-12-14T06:15:25.950Z,65.19
2017-12-14T06:16:25.946Z,65.47
2017-12-14T06:17:25.939Z,65.67
2017-12-14T06:18:25.935Z,66.90
2017-12-14T06:19:25.932Z,66.87
2017-12-14T06:20:25.927Z,67.44
2017-12-14T06:21:25.920Z,66.52
2017-12-14T06:22:25.917Z,64.97
2017-12-14T06:23:25.913Z,63.95
2017-12-14T06:24:25.908Z,63.67
2017-12-14T06:25:25.904Z,63.76
2017-12-14T06:26:25.898Z,62.62
2017-12-14T06:27:25.895Z,59.01
2017-12-14T06:28:25.890Z,58.06
2017-12-14T06:29:25.886Z,56.45
2017-12-14T06:30:25.881Z,55.30
2017-12-14T06:31:25.876Z,55.78
2017-12-14T06:32:25.873Z,56.35
2017-12-14T06:33:25.868Z,55.78
2017-12-14T06:34:25.863Z,56.07
2017-12-14T06:35:25.861Z,56.83
2017-12-14T06:36:25.856Z,56.26
2017-12-14T06:37:25.851Z,56.07
2017-12-14T06:38:25.846Z,55.69
2017-12-14T06:39:25.842Z,55.11
2017-12-14T06:40:25.839Z,54.64
2017-12-14T06:41:25.834Z,54.93
2017-12-14T06:42:25.828Z,55.15
2017-12-14T06:43:25.825Z,54.83
2017-12-14T06:44:25.822Z,55.52
2017-12-14T06:45:25.817Z,54.93
2017-12-14T06:46:25.811Z,55.69
2017-12-14T06:47:25.808Z,56.26
2017-12-14T06:48:25.803Z,56.16
2017-12-14T06:49:25.799Z,55.59
2017-12-14T06:50:25.796Z,56.45
2017-12-14T06:51:25.792Z,57.11
2017-12-14T06:52:25.788Z,57.30
2017-12-14T06:53:25.782Z,57.11
2017-12-14T06:54:25.779Z,56.83
2017-12-14T06:55:25.774Z,57.21
2017-12-14T06:56:25.771Z,56.92
2017-12-14T06:57:25.764Z,57.78
2017-12-14T06:58:25.760Z,58.35
2017-12-14T06:59:25.756Z,58.35
2017-12-14T07:00:25.757Z,59.30
2017-12-14T07:01:25.747Z,61.36
2017-12-14T07:02:25.745Z,66.42
2017-12-14T07:03:25.740Z,71.41
2017-12-14T07:04:25.736Z,75.45
2017-12-14T07:05:25.730Z,78.20
2017-12-14T07:06:25.726Z,79.77
2017-12-14T07:07:25.720Z,81.10
2017-12-14T07:08:25.716Z,82.05
2017-12-14T07:09:25.710Z,82.81
2017-12-14T07:10:25.707Z,83.90
2017-12-14T07:11:25.701Z,84.38
2017-12-14T07:12:25.695Z,85.51
2017-12-14T07:13:25.690Z,86.27
2017-12-14T07:14:25.685Z,87.59
2017-12-14T07:15:25.680Z,88.92
2017-12-14T07:16:25.674Z,90.30
2017-12-14T07:17:25.666Z,90.77
2017-12-14T07:18:25.662Z,91.72
2017-12-14T07:19:25.653Z,92.94
2017-12-14T07:20:25.650Z,93.47
2017-12-14T07:21:25.644Z,95.45
2017-12-14T07:22:25.635Z,96.69
2017-12-14T07:23:25.629Z,98.48
2017-12-14T07:24:25.621Z,99.90
2017-12-14T07:25:25.615Z,99.99
2017-12-14T07:26:25.607Z,99.99
2017-12-14T07:27:25.603Z,99.99
2017-12-14T07:28:25.594Z,99.99
2017-12-14T07:29:25.587Z,99.99
2017-12-14T07:30:25.579Z,99.99
2017-12-14T07:31:25.572Z,99.99
2017-12-14T07:32:25.565Z,99.99
2017-12-14T07:33:25.556Z,99.99
2017-12-14T07:34:25.550Z,99.99
2017-12-14T07:35:25.543Z,99.99
2017-12-14T07:36:25.536Z,99.99
2017-12-14T07:37:25.531Z,99.99
2017-12-14T07:38:25.521Z,99.99
2017-12-14T07:39:25.513Z,99.99
2017-12-14T07:40:25.505Z,99.99
2017-12-14T07:41:25.498Z,99.99
2017-12-14T07:42:25.490Z,99.99
2017-12-14T07:43:25.483Z,99.99
2017-12-14T07:44:25.475Z,99.99
2017-12-14T07:45:25.466Z,99.99
2017-12-14T07:46:25.459Z,99.99
2017-12-14T07:47:25.452Z,99.99
2017-12-14T07:48:25.444Z,99.99
2017-12-14T07:49:25.435Z,99.99
2017-12-14T07:50:25.429Z,99.24
2017-12-14T07:51:25.420Z,97.25
2017-12-14T07:52:25.413Z,97.06
2017-12-14T07:53:25.404Z,95.74
2017-12-14T07:54:25.398Z,96.02
2017-12-14T07:55:25.389Z,95.55
2017-12-14T07:56:25.382Z,96.21
2017-12-14T07:57:25.374Z,96.31
2017-12-14T07:58:25.366Z,95.36
2017-12-14T07:59:25.359Z,95.17
2017-12-14T08:00:25.352Z,94.42
2017-12-14T08:01:25.401Z,93.18
2017-12-14T08:02:25.336Z,93.66
2017-12-14T08:03:25.327Z,93.09
2017-12-14T08:04:25.320Z,92.14
2017-12-14T08:05:25.311Z,92.33
2017-12-14T08:06:25.304Z,92.33
2017-12-14T08:07:25.296Z,93.47
2017-12-14T08:08:25.289Z,94.79
2017-12-14T08:09:25.280Z,96.21
2017-12-14T08:10:25.524Z,97.16
2017-12-14T08:11:25.266Z,97.25
2017-12-14T08:12:25.259Z,96.59
2017-12-14T08:13:25.249Z,96.02
2017-12-14T08:14:25.243Z,95.36
2017-12-14T08:15:25.235Z,95.64
2017-12-14T08:16:25.227Z,96.59
2017-12-14T08:17:25.219Z,96.69
2017-12-14T08:18:25.214Z,97.16
2017-12-14T08:19:25.204Z,97.16
2017-12-14T08:20:25.196Z,96.78
2017-12-14T08:21:25.188Z,97.82
2017-12-14T08:22:25.182Z,96.88
2017-12-14T08:23:25.174Z,97.16
2017-12-14T08:24:25.166Z,96.50
2017-12-14T08:25:25.156Z,96.02
2017-12-14T08:26:25.150Z,96.59
2017-12-14T08:27:25.144Z,95.64
2017-12-14T08:28:25.136Z,96.12
2017-12-14T08:29:25.128Z,97.25
2017-12-14T08:30:25.120Z,96.21
2017-12-14T08:31:25.112Z,96.31
2017-12-14T08:32:25.105Z,96.69
2017-12-14T08:33:25.098Z,96.12
2017-12-14T08:34:25.090Z,95.74
2017-12-14T08:35:25.083Z,95.83
2017-12-14T08:36:25.075Z,95.93
2017-12-14T08:37:25.066Z,95.93
2017-12-14T08:38:25.059Z,95.45
2017-12-14T08:39:25.051Z,95.64
2017-12-14T08:40:25.045Z,95.17
2017-12-14T08:41:25.037Z,95.07
2017-12-14T08:42:25.028Z,95.07
2017-12-14T08:43:25.022Z,94.79
2017-12-14T08:44:25.016Z,94.04
2017-12-14T08:45:25.007Z,93.75
2017-12-14T08:46:24.999Z,93.56
2017-12-14T08:47:24.993Z,93.18
2017-12-14T08:48:24.984Z,93.56
2017-12-14T08:49:24.976Z,93.09
2017-12-14T08:50:24.969Z,93.18
2017-12-14T08:51:24.962Z,91.77
2017-12-14T08:52:24.955Z,92.19
2017-12-14T08:53:24.949Z,92.19
2017-12-14T08:54:24.940Z,91.91
2017-12-14T08:55:24.932Z,92.29
2017-12-14T08:56:24.925Z,91.53
2017-12-14T08:57:24.918Z,90.96
2017-12-14T08:58:24.911Z,90.48
2017-12-14T08:59:24.904Z,89.25
2017-12-14T09:00:24.896Z,88.49
2017-12-14T09:01:24.890Z,86.04
2017-12-14T09:02:24.886Z,84.14
2017-12-14T09:03:24.882Z,83.01
2017-12-14T09:04:24.869Z,83.48
2017-12-14T09:05:24.861Z,82.95
2017-12-14T09:06:24.854Z,83.05
2017-12-14T09:07:24.850Z,82.86
2017-12-14T09:08:24.840Z,82.86
2017-12-14T09:09:24.832Z,83.62
2017-12-14T09:10:24.825Z,83.90
2017-12-14T09:11:24.819Z,84.38
2017-12-14T09:12:24.812Z,83.43
2017-12-14T09:13:24.804Z,83.24
2017-12-14T09:14:24.797Z,82.86
2017-12-14T09:15:24.792Z,82.01
2017-12-14T09:16:24.784Z,82.01
2017-12-14T09:17:24.777Z,83.05
2017-12-14T09:18:24.772Z,82.95
2017-12-14T09:19:24.764Z,82.76
2017-12-14T09:20:24.758Z,82.01
2017-12-14T09:21:24.751Z,81.63
2017-12-14T09:22:24.744Z,79.45
2017-12-14T09:23:24.739Z,78.50
2017-12-14T09:24:24.730Z,78.50
2017-12-14T09:25:24.723Z,78.41
2017-12-14T09:26:24.719Z,78.22
2017-12-14T09:27:24.710Z,77.65
2017-12-14T09:28:24.705Z,78.31
2017-12-14T09:29:24.695Z,77.27
2017-12-14T09:30:24.689Z,76.84
2017-12-14T09:31:24.683Z,75.98
2017-12-14T09:32:24.677Z,75.23
2017-12-14T09:33:24.669Z,75.89
2017-12-14T09:34:24.664Z,75.13
2017-12-14T09:35:24.655Z,74.75
2017-12-14T09:36:24.651Z,75.70
2017-12-14T09:37:24.643Z,75.98
2017-12-14T09:38:24.636Z,75.60
2017-12-14T09:39:24.634Z,74.75
2017-12-14T09:40:24.624Z,75.70
2017-12-14T09:41:24.616Z,75.32
2017-12-14T09:42:24.609Z,74.66
2017-12-14T09:43:24.604Z,74.47
2017-12-14T09:44:24.598Z,74.37
2017-12-14T09:45:24.590Z,73.99
2017-12-14T09:46:24.584Z,72.96
2017-12-14T09:47:24.577Z,72.77
2017-12-14T09:48:24.571Z,73.43
2017-12-14T09:49:24.565Z,73.80
2017-12-14T09:50:24.559Z,74.37
2017-12-14T09:51:24.551Z,74.09
2017-12-14T09:52:24.545Z,72.96
2017-12-14T09:53:24.538Z,71.15
2017-12-14T09:54:24.532Z,69.64
2017-12-14T09:55:24.525Z,69.26
2017-12-14T09:56:24.519Z,68.98
2017-12-14T09:57:24.513Z,68.02
2017-12-14T09:58:24.506Z,66.83
2017-12-14T09:59:24.500Z,66.83
2017-12-14T10:00:24.495Z,66.26
2017-12-14T10:01:24.490Z,65.97
2017-12-14T10:02:24.482Z,64.84
2017-12-14T10:03:24.485Z,65.12
2017-12-14T10:04:24.470Z,65.12
2017-12-14T10:05:24.464Z,64.74
2017-12-14T10:06:24.458Z,64.65
2017-12-14T10:07:24.452Z,65.12
2017-12-14T10:08:24.446Z,65.12
2017-12-14T10:09:24.441Z,65.50
2017-12-14T10:10:24.435Z,65.69
2017-12-14T10:11:24.428Z,66.64
2017-12-14T10:12:24.427Z,67.68
2017-12-14T10:13:24.418Z,67.58
2017-12-14T10:14:24.411Z,68.25
2017-12-14T10:15:24.406Z,68.63
2017-12-14T10:16:24.401Z,69.48
2017-12-14T10:17:24.395Z,67.96
2017-12-14T10:18:24.412Z,68.06
2017-12-14T10:19:24.384Z,68.29
2017-12-14T10:20:24.380Z,69.04
2017-12-14T10:21:24.372Z,69.61
2017-12-14T10:22:24.369Z,70.84
2017-12-14T10:23:24.364Z,71.32
2017-12-14T10:24:24.358Z,71.70
2017-12-14T10:25:24.353Z,72.64
2017-12-14T10:26:24.348Z,73.12
2017-12-14T10:27:24.343Z,73.50
2017-12-14T10:28:24.338Z,65.16
2017-12-14T10:29:24.332Z,66.67
2017-12-14T10:30:24.327Z,69.61
2017-12-14T10:31:24.323Z,72.08
2017-12-14T10:32:24.320Z,73.41
2017-12-14T10:33:24.312Z,73.56
2017-12-14T10:34:24.309Z,73.94
2017-12-14T10:35:24.304Z,66.64
2017-12-14T10:36:24.298Z,66.54
2017-12-14T10:37:24.292Z,68.15
2017-12-14T10:38:24.288Z,68.63
2017-12-14T10:39:24.597Z,67.87
2017-12-14T10:40:24.279Z,67.11
2017-12-14T10:41:24.273Z,63.51
2017-12-14T10:42:24.268Z,60.47
2017-12-14T10:43:24.263Z,60.47
2017-12-14T10:44:24.260Z,58.77
2017-12-14T10:45:24.253Z,57.35
2017-12-14T10:46:24.248Z,57.82
2017-12-14T10:47:24.243Z,55.57
2017-12-14T10:48:24.237Z,54.06
2017-12-14T10:49:24.231Z,54.63
2017-12-14T10:50:24.226Z,53.39
2017-12-14T10:51:24.226Z,53.02
2017-12-14T10:52:24.217Z,51.12
2017-12-14T10:53:24.211Z,50.74
2017-12-14T10:54:24.207Z,51.68
2017-12-14T10:55:24.203Z,50.45
2017-12-14T10:56:24.196Z,49.88
2017-12-14T10:57:24.192Z,50.83
2017-12-14T10:58:24.217Z,51.87
2017-12-14T10:59:24.180Z,49.79
2017-12-14T11:00:24.176Z,48.36
2017-12-14T11:01:24.171Z,48.18
2017-12-14T11:02:24.167Z,48.84
2017-12-14T11:03:24.163Z,49.32
2017-12-14T11:04:24.165Z,49.41
2017-12-14T11:05:24.152Z,50.83
2017-12-14T11:06:24.147Z,51.40
2017-12-14T11:07:24.143Z,51.40
2017-12-14T11:08:24.138Z,51.97
2017-12-14T11:09:24.133Z,52.54
2017-12-14T11:10:24.127Z,54.34
2017-12-14T11:11:24.123Z,55.67
2017-12-14T11:12:24.118Z,56.81
2017-12-14T11:13:24.160Z,57.09
2017-12-14T11:14:24.108Z,58.99
2017-12-14T11:15:24.102Z,59.75
2017-12-14T11:16:24.098Z,59.37
2017-12-14T11:17:24.093Z,60.41
2017-12-14T11:18:24.087Z,60.79
2017-12-14T11:19:24.082Z,61.93
2017-12-14T11:20:24.077Z,61.99
2017-12-14T11:21:24.071Z,62.56
2017-12-14T11:22:24.066Z,64.08
2017-12-14T11:23:24.061Z,64.11
2017-12-14T11:24:24.056Z,65.22
2017-12-14T11:25:24.050Z,66.07
2017-12-14T11:26:24.045Z,67.40
2017-12-14T11:27:24.040Z,68.15
2017-12-14T11:28:24.033Z,69.10
2017-12-14T11:29:24.029Z,71.47
2017-12-14T11:30:24.023Z,71.95
2017-12-14T11:31:24.017Z,73.27
2017-12-14T11:32:24.012Z,73.43
2017-12-14T11:33:24.006Z,73.46
2017-12-14T11:34:24.000Z,73.65
2017-12-14T11:35:23.996Z,74.88
2017-12-14T11:36:23.990Z,74.69
2017-12-14T11:37:23.983Z,75.55
2017-12-14T11:38:23.978Z,75.36
2017-12-14T11:39:23.976Z,75.64
2017-12-14T11:40:23.967Z,76.21
2017-12-14T11:41:23.961Z,76.21
2017-12-14T11:42:23.960Z,76.31
2017-12-14T11:43:23.951Z,75.74
2017-12-14T11:44:23.945Z,74.88
2017-12-14T11:45:23.939Z,75.55
2017-12-14T11:46:23.933Z,75.74
2017-12-14T11:47:23.929Z,76.21
2017-12-14T11:48:23.923Z,76.87
2017-12-14T11:49:23.948Z,76.40
2017-12-14T11:50:23.913Z,76.87
2017-12-14T11:51:23.906Z,75.89
2017-12-14T11:52:23.902Z,77.03
2017-12-14T11:53:23.896Z,76.93
2017-12-14T11:54:23.891Z,77.73
2017-12-14T11:55:23.885Z,77.54
2017-12-14T11:56:23.879Z,77.03
2017-12-14T11:57:23.873Z,77.25
2017-12-14T11:58:23.867Z,76.55
2017-12-14T11:59:23.862Z,74.75
2017-12-14T12:00:23.856Z,75.51
2017-12-14T12:01:23.850Z,76.17
2017-12-14T12:02:23.844Z,76.55
2017-12-14T12:03:23.839Z,76.84
2017-12-14T12:04:23.834Z,76.84
2017-12-14T12:05:23.829Z,75.98
2017-12-14T12:06:23.822Z,76.17
2017-12-14T12:07:23.818Z,76.65
2017-12-14T12:08:23.812Z,77.40
2017-12-14T12:09:23.805Z,78.07
2017-12-14T12:10:23.801Z,77.69
2017-12-14T12:11:23.794Z,77.50
2017-12-14T12:12:23.789Z,77.12
2017-12-14T12:13:23.780Z,77.31
2017-12-14T12:14:23.776Z,77.22
2017-12-14T12:15:23.770Z,77.69
2017-12-14T12:16:23.819Z,77.59
2017-12-14T12:17:23.759Z,77.31
2017-12-14T12:18:23.750Z,76.74
2017-12-14T12:19:23.746Z,75.79
2017-12-14T12:20:23.739Z,75.89
2017-12-14T12:21:23.734Z,75.51
2017-12-14T12:22:23.728Z,74.98
2017-12-14T12:23:23.722Z,75.64
2017-12-14T12:24:23.718Z,75.07
2017-12-14T12:25:23.710Z,74.98
2017-12-14T12:26:23.705Z,75.26
2017-12-14T12:27:23.699Z,75.07
2017-12-14T12:28:23.694Z,75.55
2017-12-14T12:29:23.686Z,75.93
2017-12-14T12:30:23.682Z,76.31
2017-12-14T12:31:23.676Z,75.74
2017-12-14T12:32:23.674Z,76.03
2017-12-14T12:33:23.664Z,75.17
2017-12-14T12:34:23.658Z,73.65
2017-12-14T12:35:23.654Z,72.71
2017-12-14T12:36:23.647Z,70.90
2017-12-14T12:37:23.642Z,70.43
2017-12-14T12:38:23.636Z,69.10
2017-12-14T12:39:23.630Z,68.63
2017-12-14T12:40:23.627Z,68.63
2017-12-14T12:41:23.618Z,68.25
2017-12-14T12:42:23.612Z,67.02
2017-12-14T12:43:23.608Z,66.54
2017-12-14T12:44:23.602Z,66.74
2017-12-14T12:45:23.596Z,65.03
2017-12-14T12:46:23.589Z,62.28
2017-12-14T12:47:23.586Z,62.94
2017-12-14T12:48:23.623Z,63.60
2017-12-14T12:49:23.573Z,63.89
2017-12-14T12:50:23.569Z,65.31
2017-12-14T12:51:23.563Z,66.16
2017-12-14T12:52:23.558Z,66.93